Time;durP1;ratioP1;P1;durP2;ratioP2;P2;SDS_P1;SDS_P2;PMS_P1;PMS_P2;Temp;Humidity;BMP_temperature;BMP_pressure;BME280_temperature;BME280_humidity;BME280_pressure;Samples;Min_cycle;Max_cycle;Signal;HPM_P1;HPM_P2
2023/03/22 00:00:35;;;;;;;21.77;12.55;;;9.70;99.90;;;;;;5124871;27;19920;-74
2023/03/22 00:03:01;;;;;;;23.05;11.55;;;9.80;99.90;;;;;;5115196;27;20036;-74
2023/03/22 00:05:29;;;;;;;35.05;11.73;;;9.80;99.90;;;;;;5122422;27;20126;-73
2023/03/22 00:07:56;;;;;;;21.45;11.10;;;9.70;99.90;;;;;;5115076;28;20054;-73
2023/03/22 00:10:27;;;;;;;19.33;11.48;;;9.80;99.90;;;;;;5115357;27;20123;-73
2023/03/22 00:12:53;;;;;;;18.90;10.63;;;9.70;99.90;;;;;;5123429;27;20044;-73
2023/03/22 00:15:19;;;;;;;17.95;10.70;;;9.70;99.90;;;;;;5122300;27;20043;-74
2023/03/22 00:17:45;;;;;;;20.40;11.57;;;9.80;99.90;;;;;;5123300;27;20043;-74
2023/03/22 00:20:11;;;;;;;20.10;11.38;;;9.70;99.90;;;;;;5123210;27;20118;-74
2023/03/22 00:22:37;;;;;;;28.23;12.50;;;9.70;99.90;;;;;;5115259;27;20086;-74
2023/03/22 00:25:04;;;;;;;24.58;11.15;;;9.70;99.90;;;;;;5120593;27;20035;-74
2023/03/22 00:27:30;;;;;;;20.98;10.90;;;9.70;99.90;;;;;;5119906;27;20039;-74
2023/03/22 00:29:56;;;;;;;24.90;10.60;;;9.70;99.90;;;;;;5126320;27;20046;-74
2023/03/22 00:32:22;;;;;;;23.73;11.02;;;9.70;99.90;;;;;;5131527;27;20031;-74
2023/03/22 00:34:47;;;;;;;20.25;9.95;;;9.70;99.90;;;;;;5119278;27;20080;-74
2023/03/22 00:37:15;;;;;;;23.05;11.13;;;9.60;99.90;;;;;;5101448;27;20043;-74
2023/03/22 00:39:41;;;;;;;20.63;10.23;;;9.60;99.90;;;;;;5127769;27;20039;-74
2023/03/22 00:42:07;;;;;;;20.77;10.45;;;9.50;99.90;;;;;;5122371;27;20304;-73
2023/03/22 00:44:33;;;;;;;21.35;9.55;;;9.50;99.90;;;;;;5123725;27;20031;-73
2023/03/22 00:46:59;;;;;;;18.50;9.27;;;9.50;99.90;;;;;;5098842;27;20047;-74
2023/03/22 00:49:26;;;;;;;16.25;9.35;;;9.50;99.90;;;;;;5119146;27;20043;-74
2023/03/22 00:51:51;;;;;;;18.35;8.85;;;9.50;99.90;;;;;;5126612;27;20051;-74
2023/03/22 00:54:17;;;;;;;16.15;8.07;;;9.50;99.90;;;;;;5131107;27;20043;-75
2023/03/22 00:56:45;;;;;;;16.23;7.47;;;9.60;99.90;;;;;;5096291;27;20070;-74
2023/03/22 00:59:12;;;;;;;15.05;7.75;;;9.50;99.90;;;;;;5123069;27;20563;-73
2023/03/22 01:01:39;;;;;;;19.52;7.53;;;9.40;99.90;;;;;;5122060;27;20143;-73
2023/03/22 01:04:05;;;;;;;20.90;7.90;;;9.40;99.90;;;;;;5121266;27;20035;-75
2023/03/22 01:06:32;;;;;;;18.60;7.53;;;9.40;99.90;;;;;;5126636;27;20043;-74
2023/03/22 01:08:58;;;;;;;14.45;7.28;;;9.40;99.90;;;;;;5114540;27;20418;-74
2023/03/22 01:11:24;;;;;;;14.55;6.75;;;9.40;99.90;;;;;;5099652;27;20065;-74
2023/03/22 01:13:50;;;;;;;21.13;6.78;;;9.40;99.90;;;;;;5123293;27;20047;-74
2023/03/22 01:16:16;;;;;;;15.75;6.68;;;9.30;99.90;;;;;;5129379;27;20027;-75
2023/03/22 01:18:43;;;;;;;13.38;6.00;;;9.30;99.90;;;;;;5137821;27;20047;-72
2023/03/22 01:21:09;;;;;;;12.98;5.43;;;9.30;99.90;;;;;;5127049;27;20039;-75
2023/03/22 01:23:35;;;;;;;18.13;6.18;;;9.40;99.90;;;;;;5113128;28;20044;-73
2023/03/22 01:26:01;;;;;;;14.18;5.75;;;9.30;99.90;;;;;;5113428;27;20068;-74
2023/03/22 01:28:28;;;;;;;11.75;5.35;;;9.30;99.90;;;;;;5105560;27;20835;-74
2023/03/22 01:30:54;;;;;;;11.80;5.13;;;9.40;99.90;;;;;;5128740;27;20650;-73
2023/03/22 01:33:20;;;;;;;20.25;5.85;;;9.30;99.90;;;;;;5126586;27;20122;-74
2023/03/22 01:35:46;;;;;;;13.75;4.93;;;9.30;99.90;;;;;;5124992;27;20119;-74
2023/03/22 01:38:11;;;;;;;15.00;5.43;;;9.30;99.90;;;;;;5115045;27;20115;-74
2023/03/22 01:40:37;;;;;;;14.93;4.53;;;9.30;99.90;;;;;;5111790;27;20043;-75
2023/03/22 01:43:03;;;;;;;14.60;4.28;;;9.20;99.90;;;;;;5116907;27;20058;-74
2023/03/22 01:45:39;;;;;;;14.05;4.13;;;9.30;99.90;;;;;;5120215;27;20035;-74
2023/03/22 01:48:27;;;;;;;15.07;4.45;;;9.20;99.90;;;;;;5120039;27;20054;-74
2023/03/22 01:51:08;;;;;;;12.48;4.15;;;9.20;99.90;;;;;;5108940;27;20093;-74
2023/03/22 01:53:39;;;;;;;14.40;4.85;;;9.20;99.90;;;;;;5119849;27;20177;-74
2023/03/22 01:56:06;;;;;;;15.45;3.97;;;9.20;99.90;;;;;;5127726;27;20039;-74
2023/03/22 01:58:35;;;;;;;13.00;3.90;;;9.20;99.90;;;;;;5126622;27;20122;-74
2023/03/22 02:01:02;;;;;;;13.15;3.38;;;9.20;99.90;;;;;;5124110;27;20399;-74
2023/03/22 02:03:51;;;;;;;12.05;3.53;;;9.20;99.90;;;;;;5097638;28;20051;-74
2023/03/22 02:06:18;;;;;;;14.07;3.92;;;9.10;99.90;;;;;;5112742;28;20119;-74
2023/03/22 02:08:44;;;;;;;14.67;3.23;;;9.20;99.90;;;;;;5114965;27;20454;-74
2023/03/22 02:11:15;;;;;;;8.88;3.00;;;9.10;99.90;;;;;;5126810;27;20369;-74
2023/03/22 02:13:48;;;;;;;16.10;3.40;;;9.10;99.90;;;;;;5121170;27;20047;-74
2023/03/22 02:16:16;;;;;;;9.10;3.65;;;9.10;99.90;;;;;;5120078;27;20035;-74
2023/03/22 02:18:51;;;;;;;12.32;3.05;;;9.10;99.90;;;;;;5132724;27;20046;-74
2023/03/22 02:21:54;;;;;;;10.70;3.72;;;9.10;99.90;;;;;;5134113;27;20047;-74
2023/03/22 02:24:31;;;;;;;11.98;3.17;;;9.10;99.90;;;;;;5130356;27;20039;-74
2023/03/22 02:27:34;;;;;;;12.80;3.33;;;9.00;99.90;;;;;;5124447;27;20035;-74
2023/03/22 02:30:34;;;;;;;14.48;2.80;;;9.00;99.90;;;;;;5125449;27;20035;-74
2023/03/22 02:33:10;;;;;;;12.03;3.20;;;9.00;99.90;;;;;;5123116;27;20047;-74
2023/03/22 02:35:59;;;;;;;13.98;3.00;;;9.00;99.90;;;;;;5134629;27;20447;-74
2023/03/22 02:38:44;;;;;;;9.52;3.15;;;9.00;99.90;;;;;;5117180;27;20089;-74
2023/03/22 02:41:21;;;;;;;11.18;2.70;;;9.00;99.90;;;;;;5118740;27;20070;-74
2023/03/22 02:44:02;;;;;;;13.85;3.53;;;9.00;99.90;;;;;;5124522;27;20061;-74
2023/03/22 02:46:37;;;;;;;13.30;3.05;;;9.00;99.90;;;;;;5123698;27;20115;-74
2023/03/22 02:49:19;;;;;;;12.55;3.10;;;9.00;99.90;;;;;;5126784;27;20039;-75
2023/03/22 02:51:59;;;;;;;13.98;2.88;;;9.00;99.90;;;;;;5129079;27;20047;-74
2023/03/22 02:54:40;;;;;;;12.15;2.28;;;9.00;99.90;;;;;;5133128;27;20107;-73
2023/03/22 02:57:32;;;;;;;13.40;2.88;;;9.00;99.90;;;;;;5122771;27;20036;-74
2023/03/22 02:59:59;;;;;;;7.38;2.42;;;9.10;99.90;;;;;;5114884;27;20044;-74
2023/03/22 03:02:29;;;;;;;13.48;2.58;;;9.10;99.90;;;;;;5119650;27;20117;-75
2023/03/22 03:04:56;;;;;;;9.57;2.40;;;9.10;99.90;;;;;;5120087;27;20059;-74
2023/03/22 03:07:26;;;;;;;11.07;2.40;;;9.10;99.90;;;;;;5124717;27;20043;-74
2023/03/22 03:09:52;;;;;;;8.77;2.53;;;9.10;99.90;;;;;;5125133;27;20051;-74
2023/03/22 03:12:23;;;;;;;9.35;2.63;;;9.10;99.90;;;;;;5120708;27;20046;-74
2023/03/22 03:14:49;;;;;;;14.35;3.15;;;9.20;99.90;;;;;;5125710;27;20039;-74
2023/03/22 03:17:24;;;;;;;12.70;2.72;;;9.20;99.90;;;;;;5123386;27;20044;-74
2023/03/22 03:20:15;;;;;;;15.52;3.75;;;9.20;99.90;;;;;;5118549;27;20043;-74
2023/03/22 03:23:24;;;;;;;9.32;2.20;;;9.20;99.90;;;;;;5129545;27;20051;-74
2023/03/22 03:25:56;;;;;;;12.35;2.55;;;9.20;99.90;;;;;;5091028;28;20561;-75
2023/03/22 03:28:28;;;;;;;17.27;2.92;;;9.20;99.90;;;;;;5114904;27;20122;-74
2023/03/22 03:31:09;;;;;;;18.02;3.67;;;9.20;99.90;;;;;;5125686;27;20658;-74
2023/03/22 03:33:43;;;;;;;8.00;2.22;;;9.20;99.90;;;;;;5132311;27;20086;-74
2023/03/22 03:36:11;;;;;;;14.57;2.75;;;9.20;99.90;;;;;;5100672;27;20055;-74
2023/03/22 03:38:42;;;;;;;10.30;2.67;;;9.20;99.90;;;;;;5134160;27;20043;-74
2023/03/22 03:41:13;;;;;;;9.80;2.70;;;9.20;99.90;;;;;;5099527;27;20051;-74
2023/03/22 03:43:40;;;;;;;15.05;2.53;;;9.20;99.90;;;;;;5115784;27;20082;-74
2023/03/22 03:46:07;;;;;;;11.10;2.60;;;9.20;99.90;;;;;;5122196;27;20074;-74
2023/03/22 03:48:36;;;;;;;11.50;2.95;;;9.20;99.90;;;;;;5118287;27;20043;-74
2023/03/22 03:51:02;;;;;;;9.55;3.15;;;9.20;99.90;;;;;;5102317;27;20055;-74
2023/03/22 03:53:29;;;;;;;14.95;2.67;;;9.10;99.90;;;;;;5131740;27;20118;-74
2023/03/22 03:55:55;;;;;;;12.07;2.78;;;9.20;99.90;;;;;;5121086;27;20047;-74
2023/03/22 03:58:20;;;;;;;16.38;3.30;;;9.20;99.90;;;;;;5116988;27;20046;-75
2023/03/22 04:00:50;;;;;;;12.75;2.50;;;9.10;99.90;;;;;;5100162;27;20126;-74
2023/03/22 04:03:16;;;;;;;13.32;3.05;;;9.10;99.90;;;;;;5116913;27;20035;-74
2023/03/22 04:05:42;;;;;;;18.70;2.92;;;9.10;99.90;;;;;;5119084;27;20044;-74
2023/03/22 04:08:08;;;;;;;11.30;3.53;;;9.10;99.90;;;;;;5129399;27;20432;-74
2023/03/22 04:10:34;;;;;;;13.82;2.60;;;9.20;99.90;;;;;;5117499;27;20035;-74
2023/03/22 04:13:00;;;;;;;10.98;2.67;;;9.10;99.90;;;;;;5111509;28;20066;-74
2023/03/22 04:15:25;;;;;;;14.13;2.70;;;9.10;99.90;;;;;;5114760;27;20042;-74
2023/03/22 04:17:52;;;;;;;12.88;2.80;;;9.10;99.90;;;;;;5119612;27;20054;-74
2023/03/22 04:20:19;;;;;;;12.02;2.70;;;9.10;99.90;;;;;;5100381;27;20135;-74
2023/03/22 04:22:47;;;;;;;15.73;3.28;;;9.10;99.90;;;;;;5124679;27;20476;-74
2023/03/22 04:25:16;;;;;;;11.23;3.38;;;9.10;99.90;;;;;;5121953;27;20403;-74
2023/03/22 04:27:44;;;;;;;9.52;2.88;;;9.10;99.90;;;;;;5122559;27;20043;-74
2023/03/22 04:30:19;;;;;;;16.23;3.55;;;9.10;99.90;;;;;;5121637;27;20040;-74
2023/03/22 04:32:46;;;;;;;10.82;3.10;;;9.20;99.90;;;;;;5134080;27;20047;-73
2023/03/22 04:35:12;;;;;;;13.13;3.00;;;9.10;99.90;;;;;;5118190;27;20039;-73
2023/03/22 04:37:38;;;;;;;11.57;2.90;;;9.20;99.90;;;;;;5120211;27;20031;-73
2023/03/22 04:40:06;;;;;;;12.35;3.28;;;9.10;99.90;;;;;;5120223;27;20377;-73
2023/03/22 04:42:32;;;;;;;11.68;2.95;;;9.20;99.90;;;;;;5115816;27;20122;-74
2023/03/22 04:44:59;;;;;;;8.10;2.80;;;9.10;99.90;;;;;;5122614;27;20097;-73
2023/03/22 04:47:25;;;;;;;13.93;3.65;;;9.20;99.90;;;;;;5124963;27;20035;-74
2023/03/22 04:49:50;;;;;;;13.13;4.57;;;9.10;99.90;;;;;;5135296;27;20130;-74
2023/03/22 04:52:16;;;;;;;13.13;4.38;;;9.10;99.90;;;;;;5123174;27;20135;-74
2023/03/22 04:54:42;;;;;;;13.57;4.53;;;9.10;99.90;;;;;;5120396;27;20040;-74
2023/03/22 04:57:07;;;;;;;9.75;4.15;;;9.20;99.90;;;;;;5128653;27;20035;-74
2023/03/22 04:59:34;;;;;;;13.55;4.82;;;9.10;99.90;;;;;;5119245;27;20040;-75
2023/03/22 05:02:00;;;;;;;15.57;5.07;;;9.10;99.90;;;;;;5127803;27;20095;-74
2023/03/22 05:04:26;;;;;;;15.07;5.03;;;9.20;99.90;;;;;;5124004;27;20079;-74
2023/03/22 05:06:52;;;;;;;11.32;4.88;;;9.20;99.90;;;;;;5122191;27;20081;-74
2023/03/22 05:09:18;;;;;;;16.33;5.47;;;9.20;99.90;;;;;;5123603;27;20513;-74
2023/03/22 05:11:44;;;;;;;11.10;4.80;;;9.20;99.90;;;;;;5120079;27;20038;-73
2023/03/22 05:14:10;;;;;;;20.95;6.57;;;9.20;99.90;;;;;;5124082;27;20039;-73
2023/03/22 05:16:39;;;;;;;16.63;6.05;;;9.20;99.90;;;;;;5124404;27;20043;-74
2023/03/22 05:19:12;;;;;;;15.63;5.28;;;9.20;99.90;;;;;;5113516;27;20035;-74
2023/03/22 05:21:39;;;;;;;15.15;6.47;;;9.20;99.90;;;;;;5112642;28;20490;-73
2023/03/22 05:24:06;;;;;;;16.33;7.15;;;9.30;99.90;;;;;;5096452;28;20051;-73
2023/03/22 05:26:32;;;;;;;17.27;6.80;;;9.30;99.90;;;;;;5108187;27;20078;-74
2023/03/22 05:28:58;;;;;;;18.23;7.32;;;9.40;99.90;;;;;;5114596;27;20132;-73
2023/03/22 05:31:24;;;;;;;21.27;6.72;;;9.30;99.90;;;;;;5113675;28;20079;-73
2023/03/22 05:33:50;;;;;;;15.05;7.18;;;9.30;99.90;;;;;;5130704;27;20136;-74
2023/03/22 05:36:17;;;;;;;17.42;6.80;;;9.30;99.90;;;;;;5122756;27;20499;-73
2023/03/22 05:38:44;;;;;;;20.63;8.63;;;9.30;99.90;;;;;;5123571;27;20043;-74
2023/03/22 05:41:10;;;;;;;19.35;8.07;;;9.40;99.90;;;;;;5118987;27;20112;-74
2023/03/22 05:43:36;;;;;;;17.13;8.70;;;9.40;99.90;;;;;;5130151;27;20075;-73
2023/03/22 05:46:10;;;;;;;23.85;9.07;;;9.40;99.90;;;;;;5102913;27;20042;-74
2023/03/22 05:48:37;;;;;;;14.70;8.35;;;9.40;99.90;;;;;;5131052;27;20047;-73
2023/03/22 05:51:16;;;;;;;18.88;8.70;;;9.40;99.90;;;;;;5126333;27;20552;-73
2023/03/22 05:53:44;;;;;;;22.70;9.38;;;9.40;99.90;;;;;;5121581;27;20456;-73
2023/03/22 05:56:09;;;;;;;18.77;9.10;;;9.40;99.90;;;;;;5105466;27;20514;-73
2023/03/22 05:58:35;;;;;;;22.63;9.18;;;9.40;99.90;;;;;;5123104;27;20031;-73
2023/03/22 06:01:10;;;;;;;17.50;8.75;;;9.50;99.90;;;;;;5116686;27;20031;-74
2023/03/22 06:03:37;;;;;;;22.30;10.10;;;9.40;99.90;;;;;;5121723;27;20122;-73
2023/03/22 06:06:05;;;;;;;18.08;9.55;;;9.60;99.90;;;;;;5115900;27;20031;-74
2023/03/22 06:08:32;;;;;;;17.27;9.90;;;9.40;99.90;;;;;;5120876;28;20479;-74
2023/03/22 06:10:58;;;;;;;16.77;9.25;;;9.50;99.90;;;;;;5116364;27;20040;-73
2023/03/22 06:13:24;;;;;;;22.85;9.63;;;9.50;99.90;;;;;;5117091;27;20050;-73
2023/03/22 06:15:49;;;;;;;18.05;9.63;;;9.50;99.90;;;;;;5116333;27;20039;-73
2023/03/22 06:18:15;;;;;;;21.58;10.60;;;9.50;99.90;;;;;;5120478;27;20028;-73
2023/03/22 06:20:41;;;;;;;19.05;9.88;;;9.50;99.90;;;;;;5118957;27;20047;-73
2023/03/22 06:23:07;;;;;;;20.42;10.73;;;9.60;99.90;;;;;;5118178;28;20031;-73
2023/03/22 06:25:32;;;;;;;20.60;9.93;;;9.60;99.90;;;;;;5109867;27;20399;-73
2023/03/22 06:27:58;;;;;;;21.88;10.55;;;9.60;99.90;;;;;;5117242;28;20188;-73
2023/03/22 06:30:24;;;;;;;17.35;10.93;;;9.60;99.90;;;;;;5113457;28;20040;-73
2023/03/22 06:32:50;;;;;;;21.30;10.63;;;9.70;99.90;;;;;;5113277;28;20381;-73
2023/03/22 06:35:15;;;;;;;18.40;10.00;;;9.80;99.90;;;;;;5114796;27;20119;-73
2023/03/22 06:37:41;;;;;;;18.95;10.55;;;9.70;99.90;;;;;;5122959;28;20049;-74
2023/03/22 06:40:08;;;;;;;23.80;11.43;;;9.70;99.90;;;;;;5123647;28;20074;-73
2023/03/22 06:42:34;;;;;;;21.17;10.48;;;9.80;99.90;;;;;;5117649;27;20035;-72
2023/03/22 06:44:59;;;;;;;24.58;10.82;;;9.70;99.90;;;;;;5121052;28;20524;-73
2023/03/22 06:47:26;;;;;;;22.38;9.85;;;9.80;99.90;;;;;;5115799;27;20065;-72
2023/03/22 06:49:52;;;;;;;20.13;10.05;;;9.80;99.90;;;;;;5113750;27;20524;-73
2023/03/22 06:52:17;;;;;;;20.48;11.18;;;9.90;99.90;;;;;;5110898;28;20051;-72
2023/03/22 06:54:43;;;;;;;21.10;10.85;;;9.90;99.90;;;;;;5092304;28;20120;-72
2023/03/22 06:57:09;;;;;;;19.60;11.02;;;9.90;99.90;;;;;;5126256;27;20071;-73
2023/03/22 06:59:34;;;;;;;18.17;10.70;;;9.90;99.90;;;;;;5099568;28;20073;-73
2023/03/22 07:02:00;;;;;;;21.83;10.88;;;10.00;99.90;;;;;;5132588;27;20046;-73
2023/03/22 07:04:26;;;;;;;22.27;10.98;;;10.00;99.90;;;;;;5109044;27;20470;-73
2023/03/22 07:06:52;;;;;;;17.77;10.82;;;10.10;99.90;;;;;;5114502;27;20515;-73
2023/03/22 07:09:18;;;;;;;19.55;10.95;;;10.20;99.90;;;;;;5116854;27;20075;-73
2023/03/22 07:11:44;;;;;;;23.85;10.93;;;10.30;99.90;;;;;;5116371;27;20079;-72
2023/03/22 07:14:09;;;;;;;20.05;10.32;;;10.40;99.90;;;;;;5128935;27;20073;-72
2023/03/22 07:16:35;;;;;;;19.90;10.00;;;10.60;99.90;;;;;;5127227;27;20477;-73
2023/03/22 07:19:01;;;;;;;18.35;10.27;;;10.50;99.90;;;;;;5126321;27;20047;-73
2023/03/22 07:21:26;;;;;;;23.90;10.77;;;10.60;99.90;;;;;;5116718;28;20067;-73
2023/03/22 07:23:52;;;;;;;19.75;10.15;;;10.60;99.90;;;;;;5112038;27;20034;-73
2023/03/22 07:26:18;;;;;;;26.13;10.88;;;10.50;99.90;;;;;;5126125;27;20043;-73
2023/03/22 07:28:44;;;;;;;16.13;9.05;;;10.60;99.90;;;;;;5120272;27;20046;-74
2023/03/22 07:31:11;;;;;;;18.50;10.15;;;10.60;99.90;;;;;;5116890;27;20093;-76
2023/03/22 07:33:38;;;;;;;17.85;9.00;;;10.60;99.90;;;;;;5119345;27;20032;-74
2023/03/22 07:36:04;;;;;;;22.30;10.07;;;10.60;99.90;;;;;;5129646;27;20035;-74
2023/03/22 07:38:30;;;;;;;17.10;9.70;;;10.60;99.90;;;;;;5134271;27;20097;-74
2023/03/22 07:40:55;;;;;;;17.58;9.15;;;10.60;99.90;;;;;;5124970;27;20047;-72
2023/03/22 07:43:21;;;;;;;17.15;9.50;;;10.70;99.90;;;;;;5115192;28;20434;-72
2023/03/22 07:45:51;;;;;;;18.08;8.15;;;10.60;99.90;;;;;;5128459;27;20042;-73
2023/03/22 07:48:18;;;;;;;20.15;9.43;;;10.60;99.90;;;;;;5140162;27;20045;-71
2023/03/22 07:50:44;;;;;;;17.88;9.25;;;10.50;99.90;;;;;;5119215;27;20058;-74
2023/03/22 07:53:10;;;;;;;18.90;9.80;;;10.60;99.90;;;;;;5133780;27;20100;-74
2023/03/22 07:55:36;;;;;;;15.20;8.05;;;10.60;99.90;;;;;;5129980;27;20047;-73
2023/03/22 07:58:03;;;;;;;20.58;8.30;;;10.50;99.90;;;;;;5127007;27;20069;-73
2023/03/22 08:00:29;;;;;;;12.80;8.10;;;10.50;99.90;;;;;;5100896;27;20040;-74
2023/03/22 08:02:55;;;;;;;18.13;7.97;;;10.50;99.90;;;;;;5094331;27;20056;-72
2023/03/22 08:05:21;;;;;;;15.95;7.85;;;10.60;99.90;;;;;;5129108;27;20046;-72
2023/03/22 08:07:47;;;;;;;18.35;8.05;;;10.70;99.90;;;;;;5099073;27;20089;-73
2023/03/22 08:10:13;;;;;;;16.48;7.30;;;10.80;99.90;;;;;;5127598;27;20042;-72
2023/03/22 08:12:39;;;;;;;23.50;7.93;;;11.00;99.90;;;;;;5149092;27;20039;-72
2023/03/22 08:15:06;;;;;;;16.35;7.55;;;11.10;99.90;;;;;;5125566;27;20039;-73
2023/03/22 08:17:31;;;;;;;19.20;7.53;;;11.10;99.90;;;;;;5116751;27;20426;-72
2023/03/22 08:19:57;;;;;;;17.85;7.13;;;11.20;99.90;;;;;;5115028;27;20040;-73
2023/03/22 08:22:24;;;;;;;11.55;6.30;;;11.20;99.90;;;;;;5119139;27;20047;-73
2023/03/22 08:24:54;;;;;;;20.92;7.82;;;11.10;99.90;;;;;;5119834;27;20396;-73
2023/03/22 08:27:20;;;;;;;12.00;6.38;;;11.10;99.90;;;;;;5116516;27;20043;-73
2023/03/22 08:29:47;;;;;;;12.40;6.13;;;11.10;99.90;;;;;;5127884;27;20135;-72
2023/03/22 08:32:13;;;;;;;13.23;6.80;;;11.10;99.90;;;;;;5097423;28;20036;-73
2023/03/22 08:34:40;;;;;;;17.60;6.85;;;11.30;99.90;;;;;;5133715;27;20085;-72
2023/03/22 08:37:07;;;;;;;19.05;6.60;;;11.20;99.90;;;;;;5134902;27;20051;-73
2023/03/22 08:39:33;;;;;;;16.15;6.90;;;11.30;99.90;;;;;;5131230;27;20040;-72
2023/03/22 08:41:59;;;;;;;14.45;6.32;;;11.40;99.90;;;;;;5134998;27;20096;-71
2023/03/22 08:44:25;;;;;;;17.00;6.18;;;11.30;99.90;;;;;;5133822;27;20476;-73
2023/03/22 08:46:51;;;;;;;13.15;5.78;;;11.40;99.90;;;;;;5130098;27;20050;-73
2023/03/22 08:49:17;;;;;;;17.67;5.78;;;11.50;99.90;;;;;;5135383;27;20035;-74
2023/03/22 08:51:43;;;;;;;12.88;5.32;;;11.50;99.90;;;;;;5131328;27;20040;-72
2023/03/22 08:54:09;;;;;;;15.10;5.50;;;11.50;99.90;;;;;;5127169;27;20044;-72
2023/03/22 08:56:36;;;;;;;15.68;6.10;;;11.60;99.90;;;;;;5114326;27;20035;-73
2023/03/22 08:59:03;;;;;;;16.40;6.28;;;11.60;99.90;;;;;;5113962;27;20507;-73
2023/03/22 09:01:29;;;;;;;16.52;6.05;;;11.60;99.90;;;;;;5129672;27;20039;-73
2023/03/22 09:03:55;;;;;;;11.10;5.57;;;11.80;99.90;;;;;;5123258;27;20119;-73
2023/03/22 09:06:21;;;;;;;14.52;5.53;;;11.80;99.90;;;;;;5124089;27;20115;-73
2023/03/22 09:08:50;;;;;;;14.25;5.50;;;11.80;99.90;;;;;;5121179;27;20092;-73
2023/03/22 09:11:17;;;;;;;23.63;5.47;;;11.90;99.90;;;;;;5127481;27;20484;-73
2023/03/22 09:13:42;;;;;;;10.63;5.20;;;12.10;99.90;;;;;;5124243;27;20039;-73
2023/03/22 09:16:08;;;;;;;11.35;5.28;;;11.90;99.90;;;;;;5107204;28;20043;-73
2023/03/22 09:18:35;;;;;;;17.02;5.40;;;11.80;99.90;;;;;;5116178;27;20082;-72
2023/03/22 09:21:01;;;;;;;10.50;4.53;;;11.80;99.90;;;;;;5114164;28;20075;-72
2023/03/22 09:23:29;;;;;;;15.80;4.80;;;11.80;99.90;;;;;;5117576;27;20070;-73
2023/03/22 09:25:54;;;;;;;14.35;4.43;;;11.70;99.90;;;;;;5102451;27;20369;-74
2023/03/22 09:28:20;;;;;;;15.85;4.70;;;11.60;99.90;;;;;;5114562;28;20054;-73
2023/03/22 09:30:46;;;;;;;13.20;5.07;;;11.60;99.90;;;;;;5122029;27;20039;-72
2023/03/22 09:33:12;;;;;;;16.95;4.72;;;11.70;99.90;;;;;;5125948;27;20038;-71
2023/03/22 09:35:41;;;;;;;16.40;4.93;;;11.70;99.90;;;;;;5120786;27;20130;-72
2023/03/22 09:38:07;;;;;;;14.48;5.07;;;11.80;99.90;;;;;;5124919;27;20040;-73
2023/03/22 09:40:36;;;;;;;14.23;4.60;;;11.80;99.90;;;;;;5135718;27;20039;-73
2023/03/22 09:43:06;;;;;;;15.90;4.35;;;11.80;99.90;;;;;;5130740;27;20491;-72
2023/03/22 09:45:40;;;;;;;15.40;4.43;;;11.70;99.90;;;;;;5113495;28;20085;-74
2023/03/22 09:48:26;;;;;;;16.83;5.30;;;11.80;99.90;;;;;;5114817;27;20119;-74
2023/03/22 09:50:53;;;;;;;19.45;4.90;;;11.70;99.90;;;;;;5113021;28;20409;-73
2023/03/22 09:53:21;;;;;;;9.90;4.50;;;11.60;99.90;;;;;;5114575;27;20055;-73
2023/03/22 09:55:54;;;;;;;12.63;4.53;;;11.60;99.90;;;;;;5129551;27;20043;-71
2023/03/22 09:58:39;;;;;;;12.23;4.68;;;11.50;99.90;;;;;;5119431;27;20454;-72
2023/03/22 10:01:28;;;;;;;12.35;3.83;;;11.50;99.90;;;;;;5118125;27;20047;-72
2023/03/22 10:04:21;;;;;;;11.98;4.05;;;11.30;99.90;;;;;;5113604;28;20040;-73
2023/03/22 10:07:00;;;;;;;14.65;4.65;;;11.30;99.90;;;;;;5133762;28;20159;-72
2023/03/22 10:09:30;;;;;;;11.30;4.07;;;11.30;99.90;;;;;;5132467;27;20039;-72
2023/03/22 10:12:06;;;;;;;11.23;4.20;;;11.20;99.90;;;;;;5115565;28;20515;-72
2023/03/22 10:14:35;;;;;;;13.27;4.53;;;11.20;99.90;;;;;;5113486;28;20119;-72
2023/03/22 10:17:05;;;;;;;12.35;4.47;;;11.10;99.90;;;;;;5112569;28;20048;-72
2023/03/22 10:19:44;;;;;;;10.52;4.88;;;11.10;99.90;;;;;;5123972;28;20403;-72
2023/03/22 10:22:14;;;;;;;13.02;4.70;;;11.10;99.90;;;;;;5129130;28;20051;-73
2023/03/22 10:24:42;;;;;;;11.73;4.47;;;11.00;99.90;;;;;;5118348;28;20047;-72
2023/03/22 10:27:19;;;;;;;11.82;4.78;;;11.00;99.90;;;;;;5112999;28;20050;-71
2023/03/22 10:29:54;;;;;;;13.43;4.65;;;11.00;99.90;;;;;;5108627;28;20071;-72
2023/03/22 10:32:33;;;;;;;16.52;4.43;;;10.90;99.90;;;;;;5115821;28;20043;-73
2023/03/22 10:34:59;;;;;;;14.30;4.97;;;10.90;99.90;;;;;;5112829;28;20040;-73
2023/03/22 10:37:33;;;;;;;12.70;4.65;;;10.90;99.90;;;;;;5117947;28;20098;-72
2023/03/22 10:40:05;;;;;;;11.43;4.90;;;10.80;99.90;;;;;;5133966;27;20535;-72
2023/03/22 10:42:30;;;;;;;14.45;5.47;;;10.80;99.90;;;;;;5136902;27;20055;-72
2023/03/22 10:44:58;;;;;;;16.60;4.82;;;10.70;99.90;;;;;;5128094;27;20035;-72
2023/03/22 10:47:31;;;;;;;11.75;5.05;;;10.70;99.90;;;;;;5116888;28;20043;-72
2023/03/22 10:49:59;;;;;;;10.65;4.68;;;10.60;99.90;;;;;;5129676;27;20403;-72
2023/03/22 10:52:35;;;;;;;12.18;5.07;;;10.60;99.90;;;;;;5136146;27;20377;-74
2023/03/22 10:55:03;;;;;;;16.42;4.47;;;10.60;99.90;;;;;;5129030;27;20082;-72
2023/03/22 10:57:29;;;;;;;13.07;5.03;;;10.60;99.90;;;;;;5098176;28;20050;-73
2023/03/22 10:59:55;;;;;;;16.38;5.00;;;10.50;99.90;;;;;;5124078;27;20031;-74
2023/03/22 11:02:27;;;;;;;10.18;4.50;;;10.50;99.90;;;;;;5116464;28;20043;-73
2023/03/22 11:04:56;;;;;;;15.18;5.43;;;10.50;99.90;;;;;;5135776;27;20035;-73
2023/03/22 11:07:30;;;;;;;17.58;4.95;;;10.50;99.90;;;;;;5136470;27;20035;-72
2023/03/22 11:10:10;;;;;;;15.30;5.50;;;10.60;99.90;;;;;;5115953;27;20040;-74
2023/03/22 11:12:39;;;;;;;17.95;5.95;;;10.50;99.90;;;;;;5122950;27;20047;-73
2023/03/22 11:15:06;;;;;;;14.45;5.30;;;10.50;99.90;;;;;;5121477;27;20039;-74
2023/03/22 11:17:32;;;;;;;11.25;5.35;;;10.50;99.90;;;;;;5115894;28;20396;-73
2023/03/22 11:20:00;;;;;;;10.27;4.90;;;10.50;99.90;;;;;;5132335;27;20049;-73
2023/03/22 11:22:32;;;;;;;12.02;5.13;;;10.60;99.90;;;;;;5117612;27;20053;-73
2023/03/22 11:24:59;;;;;;;17.58;5.20;;;10.50;99.90;;;;;;5101587;28;20119;-71
2023/03/22 11:27:26;;;;;;;14.32;5.35;;;10.60;99.90;;;;;;5115902;28;20113;-72
2023/03/22 11:29:56;;;;;;;12.23;5.38;;;10.50;99.90;;;;;;5118001;27;20044;-73
2023/03/22 11:32:34;;;;;;;13.57;4.97;;;10.50;99.90;;;;;;5121159;27;20081;-73
2023/03/22 11:35:13;;;;;;;13.23;5.88;;;10.60;99.90;;;;;;5127546;27;20383;-74
2023/03/22 11:37:45;;;;;;;8.15;4.47;;;10.50;99.90;;;;;;5127321;27;20035;-75
2023/03/22 11:40:24;;;;;;;12.30;5.63;;;10.60;99.90;;;;;;5121844;27;20043;-73
2023/03/22 11:43:20;;;;;;;9.68;4.65;;;10.60;99.90;;;;;;5135250;27;20047;-74
2023/03/22 11:45:49;;;;;;;11.27;5.13;;;10.60;99.90;;;;;;5131429;27;20179;-73
2023/03/22 11:48:19;;;;;;;12.93;4.93;;;10.60;99.90;;;;;;5123401;27;20229;-73
2023/03/22 11:50:45;;;;;;;12.23;4.60;;;10.60;99.90;;;;;;5134988;27;20096;-74
2023/03/22 11:53:32;;;;;;;9.82;4.40;;;10.70;99.90;;;;;;5130452;27;20036;-73
2023/03/22 11:55:58;;;;;;;9.50;4.15;;;10.60;99.90;;;;;;5129811;27;20035;-73
2023/03/22 11:58:43;;;;;;;9.20;4.57;;;10.60;99.90;;;;;;5126011;27;20162;-73
2023/03/22 12:01:17;;;;;;;10.82;4.53;;;10.60;99.90;;;;;;5124336;27;20480;-74
2023/03/22 12:03:45;;;;;;;11.15;4.25;;;10.60;99.90;;;;;;5124927;27;20031;-74
2023/03/22 12:06:21;;;;;;;10.43;4.25;;;10.60;99.90;;;;;;5111406;27;20043;-73
2023/03/22 12:09:06;;;;;;;9.07;4.35;;;10.60;99.90;;;;;;5128460;27;20049;-73
2023/03/22 12:11:49;;;;;;;10.38;4.75;;;10.70;99.90;;;;;;5131566;27;20061;-74
2023/03/22 12:14:36;;;;;;;13.55;4.75;;;10.50;99.90;;;;;;5131871;27;20043;-73
2023/03/22 12:17:15;;;;;;;15.35;5.60;;;10.50;99.90;;;;;;5134912;27;20357;-73
2023/03/22 12:19:41;;;;;;;7.78;4.50;;;10.50;99.90;;;;;;5125696;27;20043;-74
2023/03/22 12:22:14;;;;;;;13.95;4.47;;;10.50;99.90;;;;;;5103186;28;20057;-73
2023/03/22 12:24:40;;;;;;;11.85;5.22;;;10.50;99.90;;;;;;5122023;27;20475;-74
2023/03/22 12:27:29;;;;;;;12.52;4.30;;;10.50;99.90;;;;;;5124096;27;20403;-73
2023/03/22 12:30:11;;;;;;;12.70;5.03;;;10.50;99.90;;;;;;5137992;27;20048;-73
2023/03/22 12:32:45;;;;;;;13.13;4.18;;;10.60;99.90;;;;;;5118359;27;20035;-74
2023/03/22 12:35:17;;;;;;;9.65;3.90;;;10.60;99.90;;;;;;5126477;27;20043;-73
2023/03/22 12:37:46;;;;;;;12.23;4.63;;;10.70;99.90;;;;;;5117646;27;20511;-73
2023/03/22 12:40:30;;;;;;;10.40;4.47;;;10.70;99.90;;;;;;5113894;27;20125;-73
2023/03/22 12:43:15;;;;;;;8.60;4.18;;;10.60;99.90;;;;;;5128312;27;20039;-73
2023/03/22 12:45:46;;;;;;;11.95;4.80;;;10.70;99.90;;;;;;5127084;27;20090;-73
2023/03/22 12:48:20;;;;;;;13.45;5.32;;;10.60;99.90;;;;;;5129144;27;20126;-73
2023/03/22 12:50:56;;;;;;;7.88;4.97;;;10.60;99.90;;;;;;5133394;27;20055;-73
2023/03/22 12:53:27;;;;;;;12.25;5.35;;;10.60;99.90;;;;;;5116566;27;20130;-73